createdAt,value
2019-05-07T00:00:08.414Z,867.10
2019-05-07T00:01:08.413Z,849.00
2019-05-07T00:02:08.396Z,869.00
2019-05-07T00:03:08.380Z,863.40
2019-05-07T00:04:08.367Z,851.50
2019-05-07T00:05:08.359Z,864.20
2019-05-07T00:06:08.369Z,841.40
2019-05-07T00:07:08.388Z,849.60
2019-05-07T00:08:08.350Z,836.90
2019-05-07T00:09:08.322Z,841.70
2019-05-07T00:10:08.307Z,830.80
2019-05-07T00:11:08.311Z,835.90
2019-05-07T00:12:08.285Z,842.80
2019-05-07T00:13:08.289Z,827.10
2019-05-07T00:14:08.276Z,828.60
2019-05-07T00:15:08.256Z,845.00
2019-05-07T00:16:08.264Z,817.60
2019-05-07T00:17:08.242Z,836.50
2019-05-07T00:18:08.226Z,832.60
2019-05-07T00:19:08.215Z,816.80
2019-05-07T00:20:08.208Z,844.70
2019-05-07T00:21:08.195Z,832.90
2019-05-07T00:22:08.194Z,840.70
2019-05-07T00:23:08.179Z,844.70
2019-05-07T00:24:08.163Z,826.30
2019-05-07T00:25:08.168Z,830.50
2019-05-07T00:26:08.153Z,818.50
2019-05-07T00:27:08.156Z,844.50
2019-05-07T00:28:08.121Z,849.00
2019-05-07T00:29:08.123Z,832.60
2019-05-07T00:30:08.093Z,830.30
2019-05-07T00:31:08.081Z,839.50
2019-05-07T00:32:08.083Z,834.60
2019-05-07T00:33:08.070Z,837.30
2019-05-07T00:34:08.063Z,853.80
2019-05-07T00:35:08.080Z,831.80
2019-05-07T00:36:08.068Z,821.30
2019-05-07T00:37:08.044Z,829.20
2019-05-07T00:38:08.030Z,853.80
2019-05-07T00:39:08.004Z,840.30
2019-05-07T00:40:08.001Z,838.00
2019-05-07T00:41:07.991Z,860.60
2019-05-07T00:42:08.029Z,853.20
2019-05-07T00:43:07.955Z,839.10
2019-05-07T00:44:07.962Z,841.30
2019-05-07T00:45:16.814Z,841.40
2019-05-07T00:46:08.932Z,863.60
2019-05-07T00:47:07.958Z,849.10
2019-05-07T00:48:07.903Z,848.20
2019-05-07T00:49:07.898Z,838.80
2019-05-07T00:50:07.882Z,849.70
2019-05-07T00:51:07.875Z,821.80
2019-05-07T00:52:07.884Z,850.20
2019-05-07T00:53:07.861Z,843.80
2019-05-07T00:54:07.856Z,854.10
2019-05-07T00:55:07.827Z,851.00
2019-05-07T00:56:07.818Z,842.30
2019-05-07T00:57:07.832Z,851.80
2019-05-07T00:58:07.796Z,826.00
2019-05-07T00:59:07.801Z,851.20
2019-05-07T01:00:07.783Z,838.20
2019-05-07T01:01:07.769Z,840.70
2019-05-07T01:02:07.771Z,845.80
2019-05-07T01:03:07.752Z,832.90
2019-05-07T01:04:07.745Z,832.70
2019-05-07T01:05:07.721Z,844.20
2019-05-07T01:06:07.715Z,836.60
2019-05-07T01:07:07.738Z,836.70
2019-05-07T01:08:07.699Z,817.20
2019-05-07T01:09:07.697Z,831.00
2019-05-07T01:10:07.682Z,840.20
2019-05-07T01:11:07.663Z,840.00
2019-05-07T01:12:07.697Z,857.50
2019-05-07T01:13:07.643Z,839.50
2019-05-07T01:14:07.634Z,841.70
2019-05-07T01:15:07.615Z,849.40
2019-05-07T01:16:07.630Z,836.60
2019-05-07T01:17:07.615Z,847.00
2019-05-07T01:18:07.585Z,839.70
2019-05-07T01:19:07.584Z,839.60
2019-05-07T01:20:07.564Z,843.00
2019-05-07T01:21:08.187Z,838.90
2019-05-07T01:22:07.568Z,846.00
2019-05-07T01:23:07.578Z,840.40
2019-05-07T01:24:07.539Z,854.90
2019-05-07T01:25:07.518Z,843.20
2019-05-07T01:26:07.511Z,843.00
2019-05-07T01:27:07.493Z,854.00
2019-05-07T01:28:07.498Z,848.80
2019-05-07T01:29:07.486Z,851.50
2019-05-07T01:30:07.465Z,856.00
2019-05-07T01:31:07.487Z,870.50
2019-05-07T01:32:07.447Z,856.40
2019-05-07T01:33:07.443Z,848.80
2019-05-07T01:34:07.467Z,849.60
2019-05-07T01:35:07.451Z,867.70
2019-05-07T01:36:07.400Z,869.40
2019-05-07T01:37:07.395Z,855.50
2019-05-07T01:38:07.396Z,855.80
2019-05-07T01:39:07.365Z,861.60
2019-05-07T01:40:07.401Z,855.70
2019-05-07T01:41:07.365Z,857.70
2019-05-07T01:42:07.366Z,862.60
2019-05-07T01:43:07.350Z,864.10
2019-05-07T01:44:07.320Z,861.30
2019-05-07T01:45:07.348Z,853.30
2019-05-07T01:46:07.290Z,851.10
2019-05-07T01:47:07.281Z,843.90
2019-05-07T01:48:07.308Z,841.30
2019-05-07T01:49:07.281Z,831.20
2019-05-07T01:50:07.248Z,849.70
2019-05-07T01:51:07.245Z,842.00
2019-05-07T01:52:07.245Z,837.40
2019-05-07T01:53:07.229Z,854.70
2019-05-07T01:54:07.238Z,845.80
2019-05-07T01:55:07.229Z,846.60
2019-05-07T01:56:07.193Z,840.70
2019-05-07T01:57:07.184Z,852.20
2019-05-07T01:58:07.164Z,839.50
2019-05-07T01:59:07.196Z,842.50
2019-05-07T02:00:07.151Z,836.60
2019-05-07T02:01:07.144Z,850.10
2019-05-07T02:02:07.124Z,847.50
2019-05-07T02:03:07.128Z,828.00
2019-05-07T02:04:07.118Z,830.80
2019-05-07T02:05:07.116Z,852.60
2019-05-07T02:06:07.079Z,853.90
2019-05-07T02:07:07.095Z,830.80
2019-05-07T02:08:07.071Z,850.30
2019-05-07T02:09:10.135Z,830.00
2019-05-07T02:10:07.046Z,844.80
2019-05-07T02:11:07.034Z,850.70
2019-05-07T02:12:07.035Z,834.60
2019-05-07T02:13:07.012Z,846.40
2019-05-07T02:14:07.028Z,854.10
2019-05-07T02:15:07.002Z,853.20
2019-05-07T02:16:06.986Z,850.30
2019-05-07T02:17:06.991Z,854.90
2019-05-07T02:18:06.960Z,838.70
2019-05-07T02:19:06.962Z,848.10
2019-05-07T02:20:06.951Z,863.70
2019-05-07T02:21:06.946Z,867.30
2019-05-07T02:22:06.922Z,852.50
2019-05-07T02:23:06.918Z,861.70
2019-05-07T02:24:06.893Z,844.30
2019-05-07T02:25:07.001Z,857.20
2019-05-07T02:26:06.873Z,856.90
2019-05-07T02:27:06.860Z,853.50
2019-05-07T02:28:06.888Z,852.90
2019-05-07T02:29:06.841Z,848.80
2019-05-07T02:30:06.850Z,861.50
2019-05-07T02:31:06.813Z,853.00
2019-05-07T02:32:06.818Z,852.50
2019-05-07T02:33:06.843Z,865.80
2019-05-07T02:34:06.800Z,854.70
2019-05-07T02:35:06.791Z,853.40
2019-05-07T02:36:06.790Z,842.10
2019-05-07T02:37:06.770Z,830.30
2019-05-07T02:38:06.749Z,850.00
2019-05-07T02:39:06.731Z,845.60
2019-05-07T02:40:06.770Z,850.30
2019-05-07T02:41:06.748Z,831.70
2019-05-07T02:42:06.702Z,863.30
2019-05-07T02:43:06.696Z,857.80
2019-05-07T02:44:06.708Z,853.30
2019-05-07T02:45:06.695Z,844.40
2019-05-07T02:46:20.771Z,854.60
2019-05-07T02:47:07.653Z,849.80
2019-05-07T02:48:06.668Z,857.80
2019-05-07T02:49:06.630Z,868.50
2019-05-07T02:50:06.634Z,849.60
2019-05-07T02:51:06.621Z,859.10
2019-05-07T02:52:06.594Z,861.50
2019-05-07T02:53:06.587Z,859.00
2019-05-07T02:54:06.572Z,844.10
2019-05-07T02:55:06.573Z,849.40
2019-05-07T02:56:06.618Z,848.80
2019-05-07T02:57:06.594Z,853.30
2019-05-07T02:58:06.555Z,850.10
2019-05-07T02:59:06.535Z,854.80
2019-05-07T03:00:06.521Z,867.90
2019-05-07T03:01:06.511Z,983.00
2019-05-07T03:02:06.488Z,999.60
2019-05-07T03:03:06.511Z,975.20
2019-05-07T03:04:06.469Z,992.40
2019-05-07T03:05:06.459Z,999.90
2019-05-07T03:06:06.475Z,999.50
2019-05-07T03:07:06.674Z,998.80
2019-05-07T03:08:06.440Z,997.50
2019-05-07T03:09:06.428Z,999.90
2019-05-07T03:10:06.419Z,999.90
2019-05-07T03:11:06.463Z,989.10
2019-05-07T03:12:06.394Z,995.30
2019-05-07T03:13:06.378Z,999.90
2019-05-07T03:14:06.364Z,999.90
2019-05-07T03:15:06.357Z,989.50
2019-05-07T03:16:06.350Z,987.30
2019-05-07T03:17:06.347Z,998.10
2019-05-07T03:18:06.322Z,999.90
2019-05-07T03:19:06.321Z,993.80
2019-05-07T03:20:06.305Z,999.90
2019-05-07T03:21:06.298Z,999.90
2019-05-07T03:22:06.287Z,993.80
2019-05-07T03:23:06.286Z,999.90
2019-05-07T03:24:06.272Z,994.70
2019-05-07T03:25:06.249Z,994.90
2019-05-07T03:26:06.253Z,999.60
2019-05-07T03:27:06.271Z,999.90
2019-05-07T03:28:06.443Z,999.90
2019-05-07T03:29:06.206Z,992.20
2019-05-07T03:30:06.198Z,999.90
2019-05-07T03:31:06.537Z,993.40
2019-05-07T03:32:06.574Z,999.90
2019-05-07T03:33:07.267Z,999.90
2019-05-07T03:34:07.331Z,999.90
2019-05-07T03:35:07.420Z,999.40
2019-05-07T03:36:07.564Z,999.90
2019-05-07T03:37:06.775Z,999.90
2019-05-07T03:38:06.145Z,999.90
2019-05-07T03:39:06.111Z,999.90
2019-05-07T03:40:06.111Z,999.90
2019-05-07T03:41:06.131Z,999.90
2019-05-07T03:42:06.072Z,999.90
2019-05-07T03:43:06.570Z,999.90
2019-05-07T03:44:06.052Z,999.90
2019-05-07T03:45:06.062Z,999.90
2019-05-07T03:46:06.044Z,999.90
2019-05-07T03:47:06.454Z,999.90
2019-05-07T03:48:06.018Z,999.90
2019-05-07T03:49:06.233Z,993.50
2019-05-07T03:50:05.994Z,999.90
2019-05-07T03:51:05.977Z,999.90
2019-05-07T03:52:05.986Z,999.90
2019-05-07T03:53:05.966Z,999.90
2019-05-07T03:54:05.956Z,999.90
2019-05-07T03:55:05.940Z,999.90
2019-05-07T03:56:05.925Z,999.90
2019-05-07T03:57:11.344Z,999.90
2019-05-07T03:58:06.896Z,999.90
2019-05-07T03:59:05.881Z,999.90
2019-05-07T04:00:05.883Z,999.90
2019-05-07T04:01:05.890Z,999.90
2019-05-07T04:02:05.889Z,999.90
2019-05-07T04:03:05.844Z,999.90
2019-05-07T04:04:05.834Z,999.90
2019-05-07T04:05:05.814Z,999.90
2019-05-07T04:06:05.815Z,999.90
2019-05-07T04:07:05.820Z,999.90
2019-05-07T04:08:05.808Z,999.90
2019-05-07T04:09:05.785Z,999.90
2019-05-07T04:10:09.698Z,999.90
2019-05-07T04:11:05.759Z,999.90
2019-05-07T04:12:05.760Z,999.90
2019-05-07T04:13:05.729Z,999.90
2019-05-07T04:14:05.718Z,999.90
2019-05-07T04:15:05.723Z,999.90
2019-05-07T04:16:05.716Z,999.90
2019-05-07T04:17:21.189Z,999.90
2019-05-07T04:18:06.691Z,999.90
2019-05-07T04:19:05.674Z,999.90
2019-05-07T04:20:05.665Z,999.90
2019-05-07T04:21:05.665Z,999.90
2019-05-07T04:22:05.651Z,999.90
2019-05-07T04:23:05.669Z,999.90
2019-05-07T04:24:05.653Z,999.90
2019-05-07T04:25:05.613Z,999.90
2019-05-07T04:26:05.601Z,999.90
2019-05-07T04:27:05.590Z,999.90
2019-05-07T04:28:05.609Z,999.90
2019-05-07T04:29:06.375Z,999.90
2019-05-07T04:30:05.576Z,999.90
2019-05-07T04:31:05.559Z,999.90
2019-05-07T04:32:05.550Z,999.90
2019-05-07T04:33:05.524Z,999.90
2019-05-07T04:34:05.512Z,999.90
2019-05-07T04:35:05.515Z,996.80
2019-05-07T04:36:05.540Z,999.90
2019-05-07T04:37:05.507Z,998.60
2019-05-07T04:38:06.991Z,999.90
2019-05-07T04:39:05.447Z,989.80
2019-05-07T04:40:05.449Z,966.90
2019-05-07T04:41:05.427Z,973.40
2019-05-07T04:42:05.421Z,974.40
2019-05-07T04:43:05.427Z,990.00
2019-05-07T04:44:05.413Z,979.10
2019-05-07T04:45:05.398Z,983.90
2019-05-07T04:46:05.383Z,972.70
2019-05-07T04:47:05.386Z,998.90
2019-05-07T04:48:05.370Z,957.60
2019-05-07T04:49:05.359Z,957.70
2019-05-07T04:50:05.340Z,960.90
2019-05-07T04:51:05.327Z,993.30
2019-05-07T04:52:05.343Z,973.20
2019-05-07T04:53:05.308Z,962.50
2019-05-07T04:54:05.316Z,994.30
2019-05-07T04:55:05.308Z,994.70
2019-05-07T04:56:05.282Z,997.20
2019-05-07T04:57:05.272Z,983.80
2019-05-07T04:58:08.843Z,999.90
2019-05-07T04:59:05.236Z,999.10
2019-05-07T05:00:05.242Z,999.90
2019-05-07T05:01:05.210Z,996.70
2019-05-07T05:02:05.203Z,997.30
2019-05-07T05:03:05.248Z,999.90
2019-05-07T05:04:24.496Z,999.90
2019-05-07T05:05:06.180Z,999.00
2019-05-07T05:06:05.162Z,999.90
2019-05-07T05:07:05.162Z,999.90
2019-05-07T05:08:05.183Z,999.90
2019-05-07T05:09:05.226Z,999.90
2019-05-07T05:10:05.150Z,999.90
2019-05-07T05:11:05.115Z,999.90
2019-05-07T05:12:05.105Z,999.90
2019-05-07T05:13:05.114Z,999.90
2019-05-07T05:14:07.708Z,999.90
2019-05-07T05:15:05.076Z,999.90
2019-05-07T05:16:05.085Z,999.90
2019-05-07T05:17:05.071Z,999.90
2019-05-07T05:18:05.046Z,999.90
2019-05-07T05:19:05.073Z,999.90
2019-05-07T05:20:05.028Z,999.90
2019-05-07T05:21:04.997Z,999.90
2019-05-07T05:22:05.039Z,999.90
2019-05-07T05:23:04.995Z,999.90
2019-05-07T05:24:04.992Z,999.90
2019-05-07T05:25:04.981Z,999.90
2019-05-07T05:26:04.954Z,999.90
2019-05-07T05:27:04.949Z,992.50
2019-05-07T05:28:04.952Z,999.90
2019-05-07T05:29:04.918Z,990.90
2019-05-07T05:30:04.920Z,999.90
2019-05-07T05:31:04.906Z,999.90
2019-05-07T05:32:04.881Z,992.70
2019-05-07T05:33:04.881Z,994.60
2019-05-07T05:34:04.879Z,981.30
2019-05-07T05:35:04.898Z,984.40
2019-05-07T05:36:04.842Z,999.80
2019-05-07T05:37:04.828Z,986.60
2019-05-07T05:38:04.841Z,999.90
2019-05-07T05:39:04.831Z,999.90
2019-05-07T05:40:08.691Z,985.60
2019-05-07T05:41:04.797Z,999.90
2019-05-07T05:42:04.794Z,996.90
2019-05-07T05:43:04.764Z,999.90
2019-05-07T05:44:04.793Z,999.90
2019-05-07T05:45:04.768Z,994.30
2019-05-07T05:46:04.747Z,999.90
2019-05-07T05:47:04.750Z,999.90
2019-05-07T05:48:08.241Z,999.90
2019-05-07T05:49:04.718Z,999.90
2019-05-07T05:50:04.691Z,999.90
2019-05-07T05:51:04.677Z,999.90
2019-05-07T05:52:04.714Z,999.90
2019-05-07T05:53:04.667Z,999.90
2019-05-07T05:54:04.666Z,999.90
2019-05-07T05:55:04.636Z,998.70
2019-05-07T05:56:04.638Z,999.90
2019-05-07T05:57:04.709Z,992.90
2019-05-07T05:58:04.625Z,988.70
2019-05-07T05:59:04.615Z,999.20
2019-05-07T06:00:04.585Z,995.60
2019-05-07T06:01:04.592Z,999.20
2019-05-07T06:02:06.595Z,999.90
2019-05-07T06:03:04.551Z,993.40
2019-05-07T06:04:04.556Z,999.90
2019-05-07T06:05:04.568Z,999.20
2019-05-07T06:06:04.519Z,999.90
2019-05-07T06:07:10.760Z,999.90
2019-05-07T06:08:05.502Z,999.90
2019-05-07T06:09:04.502Z,999.90
2019-05-07T06:10:04.475Z,999.90
2019-05-07T06:11:04.492Z,999.90
2019-05-07T06:12:04.462Z,999.90
2019-05-07T06:13:04.461Z,999.90
2019-05-07T06:14:04.449Z,999.90
2019-05-07T06:15:04.432Z,999.90
2019-05-07T06:16:04.421Z,999.90
2019-05-07T06:17:04.449Z,999.90
2019-05-07T06:18:17.898Z,999.90
2019-05-07T06:19:05.401Z,999.90
2019-05-07T06:20:04.382Z,999.90
2019-05-07T06:21:04.367Z,999.90
2019-05-07T06:22:04.357Z,999.90
2019-05-07T06:23:04.378Z,999.90
2019-05-07T06:24:04.345Z,999.90
2019-05-07T06:25:04.321Z,999.90
2019-05-07T06:26:05.278Z,999.90
2019-05-07T06:27:04.303Z,999.90
2019-05-07T06:28:04.285Z,999.90
2019-05-07T06:29:04.298Z,999.90
2019-05-07T06:30:05.005Z,999.90
2019-05-07T06:31:04.279Z,999.90
2019-05-07T06:32:04.247Z,999.90
2019-05-07T06:33:04.233Z,999.90
2019-05-07T06:34:04.266Z,999.90
2019-05-07T06:35:04.264Z,999.90
2019-05-07T06:36:04.219Z,999.90
2019-05-07T06:37:04.231Z,999.90
2019-05-07T06:38:04.233Z,999.20
2019-05-07T06:39:04.191Z,999.90
2019-05-07T06:40:04.160Z,999.90
2019-05-07T06:41:04.168Z,999.60
2019-05-07T06:42:04.141Z,999.90
2019-05-07T06:43:04.149Z,999.90
2019-05-07T06:44:04.179Z,999.90
2019-05-07T06:45:04.112Z,998.60
2019-05-07T06:46:04.119Z,994.70
2019-05-07T06:47:04.126Z,999.90
2019-05-07T06:48:04.075Z,990.00
2019-05-07T06:49:04.077Z,989.80
2019-05-07T06:50:04.061Z,981.20
2019-05-07T06:51:04.060Z,988.60
2019-05-07T06:52:04.069Z,994.00
2019-05-07T06:53:04.033Z,985.10
2019-05-07T06:54:04.034Z,999.00
2019-05-07T06:55:04.033Z,990.70
2019-05-07T06:56:03.994Z,999.90
2019-05-07T06:57:03.977Z,991.20
2019-05-07T06:58:03.965Z,999.90
2019-05-07T06:59:04.181Z,999.90
2019-05-07T07:00:03.969Z,999.90
2019-05-07T07:01:03.949Z,999.90
2019-05-07T07:02:05.669Z,999.90
2019-05-07T07:03:03.913Z,999.90
2019-05-07T07:04:03.909Z,999.90
2019-05-07T07:05:03.908Z,999.90
2019-05-07T07:06:03.878Z,999.90
2019-05-07T07:07:03.905Z,999.90
2019-05-07T07:08:03.862Z,999.90
2019-05-07T07:09:03.866Z,999.90
2019-05-07T07:10:03.869Z,999.90
2019-05-07T07:11:03.867Z,999.90
2019-05-07T07:12:03.821Z,999.90
2019-05-07T07:13:03.829Z,999.90
2019-05-07T07:14:03.796Z,999.90
2019-05-07T07:15:03.798Z,999.90
2019-05-07T07:16:03.776Z,999.90
2019-05-07T07:17:03.765Z,999.90
2019-05-07T07:18:03.755Z,999.90
2019-05-07T07:19:03.750Z,999.90
2019-05-07T07:20:03.845Z,999.90
2019-05-07T07:21:03.719Z,999.90
2019-05-07T07:22:03.714Z,999.90
2019-05-07T07:23:03.702Z,999.90
2019-05-07T07:24:03.718Z,999.90
2019-05-07T07:25:06.451Z,999.90
2019-05-07T07:26:03.676Z,999.90
2019-05-07T07:27:03.667Z,999.90
2019-05-07T07:28:03.667Z,999.90
2019-05-07T07:29:03.635Z,999.90
2019-05-07T07:30:03.657Z,999.90
2019-05-07T07:31:03.621Z,999.90
2019-05-07T07:32:03.598Z,999.90
2019-05-07T07:33:03.590Z,999.90
2019-05-07T07:34:03.597Z,999.90
2019-05-07T07:35:03.586Z,999.90
2019-05-07T07:36:03.559Z,999.90
2019-05-07T07:37:09.023Z,999.90
2019-05-07T07:38:04.539Z,999.90
2019-05-07T07:39:03.555Z,999.90
2019-05-07T07:40:03.537Z,999.90
2019-05-07T07:41:05.423Z,999.90
2019-05-07T07:42:03.514Z,999.90
2019-05-07T07:43:06.780Z,999.90
2019-05-07T07:44:03.504Z,999.90
2019-05-07T07:45:03.503Z,999.90
2019-05-07T07:46:03.459Z,999.90
2019-05-07T07:47:03.454Z,999.90
2019-05-07T07:48:03.429Z,999.90
2019-05-07T07:49:10.672Z,999.90
2019-05-07T07:50:04.442Z,999.90
2019-05-07T07:51:03.567Z,999.90
2019-05-07T07:52:03.429Z,999.90
2019-05-07T07:53:03.400Z,999.90
2019-05-07T07:54:03.374Z,999.90
2019-05-07T07:55:03.356Z,999.90
2019-05-07T07:56:03.397Z,999.90
2019-05-07T07:57:03.359Z,999.90
2019-05-07T07:58:03.328Z,999.90
2019-05-07T07:59:03.344Z,999.90
2019-05-07T08:00:03.310Z,999.90
2019-05-07T08:01:03.307Z,999.90
2019-05-07T08:02:03.330Z,999.90
2019-05-07T08:03:03.303Z,999.90
2019-05-07T08:04:03.276Z,999.90
2019-05-07T08:05:03.253Z,999.90
2019-05-07T08:06:03.272Z,999.90
2019-05-07T08:07:03.355Z,999.90
2019-05-07T08:08:03.229Z,999.90
2019-05-07T08:09:07.507Z,999.90
2019-05-07T08:10:05.733Z,999.90
2019-05-07T08:11:42.754Z,999.90
2019-05-07T08:12:03.316Z,999.90
2019-05-07T08:13:03.159Z,999.90
2019-05-07T08:14:03.152Z,999.90
2019-05-07T08:15:14.667Z,999.90
2019-05-07T08:16:04.161Z,999.90
2019-05-07T08:17:03.117Z,999.90
2019-05-07T08:18:03.112Z,999.90
2019-05-07T08:19:03.106Z,999.90
2019-05-07T08:20:03.097Z,999.90
2019-05-07T08:21:03.099Z,999.90
2019-05-07T08:22:03.198Z,999.90
2019-05-07T08:23:03.141Z,999.90
2019-05-07T08:24:03.057Z,999.90
2019-05-07T08:25:03.056Z,999.90
2019-05-07T08:26:03.048Z,999.90
2019-05-07T08:27:03.020Z,999.90
2019-05-07T08:28:03.038Z,999.90
2019-05-07T08:29:03.070Z,999.90
2019-05-07T08:30:03.054Z,999.90
2019-05-07T08:31:03.085Z,999.90
2019-05-07T08:32:03.035Z,999.90
2019-05-07T08:33:02.968Z,999.90
2019-05-07T08:34:02.949Z,999.90
2019-05-07T08:35:02.960Z,999.90
2019-05-07T08:36:02.920Z,999.90
2019-05-07T08:37:02.922Z,999.90
2019-05-07T08:38:02.943Z,999.90
2019-05-07T08:39:02.916Z,999.90
2019-05-07T08:40:03.220Z,999.90
2019-05-07T08:41:02.902Z,999.10
2019-05-07T08:42:02.867Z,932.80
2019-05-07T08:43:03.355Z,928.50
2019-05-07T08:44:11.488Z,958.30
2019-05-07T08:45:03.900Z,941.10
2019-05-07T08:46:02.829Z,947.90
2019-05-07T08:47:02.858Z,965.70
2019-05-07T08:48:02.795Z,942.40
2019-05-07T08:49:02.779Z,932.30
2019-05-07T08:50:02.983Z,936.50
2019-05-07T08:51:02.774Z,946.70
2019-05-07T08:52:03.778Z,969.30
2019-05-07T08:53:02.879Z,963.50
2019-05-07T08:54:02.726Z,920.60
2019-05-07T08:55:02.719Z,933.00
2019-05-07T08:56:03.288Z,949.80
2019-05-07T08:57:02.714Z,959.80
2019-05-07T08:58:02.700Z,951.60
2019-05-07T08:59:02.679Z,957.80
2019-05-07T09:00:04.723Z,905.00
2019-05-07T09:01:03.177Z,958.90
2019-05-07T09:02:03.094Z,926.30
2019-05-07T09:03:02.632Z,922.40
2019-05-07T09:04:02.623Z,929.10
2019-05-07T09:05:03.103Z,910.80
2019-05-07T09:06:02.597Z,891.70
2019-05-07T09:07:02.920Z,903.20
2019-05-07T09:08:02.582Z,916.90
2019-05-07T09:09:02.582Z,933.00
2019-05-07T09:10:02.690Z,911.80
2019-05-07T09:11:02.539Z,905.60
2019-05-07T09:12:03.143Z,900.80
2019-05-07T09:13:02.890Z,923.90
2019-05-07T09:14:02.514Z,910.60
2019-05-07T09:15:02.548Z,924.80
2019-05-07T09:16:02.523Z,913.10
2019-05-07T09:17:02.935Z,934.20
2019-05-07T09:18:02.469Z,913.20
2019-05-07T09:19:02.449Z,914.40
2019-05-07T09:20:02.741Z,895.90
2019-05-07T09:21:02.435Z,889.40
2019-05-07T09:22:02.438Z,941.00
2019-05-07T09:23:02.448Z,903.90
2019-05-07T09:24:02.593Z,939.70
2019-05-07T09:25:03.078Z,924.70
2019-05-07T09:26:02.830Z,927.90
2019-05-07T09:27:02.770Z,921.20
2019-05-07T09:28:02.716Z,933.00
2019-05-07T09:29:02.695Z,938.40
2019-05-07T09:30:02.805Z,928.80
2019-05-07T09:31:02.325Z,954.80
2019-05-07T09:32:03.055Z,933.30
2019-05-07T09:33:02.600Z,943.40
2019-05-07T09:34:02.691Z,961.20
2019-05-07T09:35:02.446Z,946.30
2019-05-07T09:36:02.407Z,937.10
2019-05-07T09:37:02.468Z,930.40
2019-05-07T09:38:03.160Z,944.00
2019-05-07T09:39:02.795Z,943.20
2019-05-07T09:40:02.813Z,943.60
2019-05-07T09:41:02.768Z,981.00
2019-05-07T09:42:02.300Z,947.30
2019-05-07T09:43:02.609Z,942.70
2019-05-07T09:44:03.190Z,942.10
2019-05-07T09:45:02.222Z,970.80
2019-05-07T09:46:02.681Z,999.90
2019-05-07T09:47:02.735Z,999.90
2019-05-07T09:48:02.822Z,999.90
2019-05-07T09:49:03.058Z,999.90
2019-05-07T09:50:07.163Z,999.90
2019-05-07T09:51:03.132Z,999.90
2019-05-07T09:52:03.248Z,999.90
2019-05-07T09:53:02.404Z,999.90
2019-05-07T09:54:02.534Z,999.90
2019-05-07T09:55:11.069Z,999.90
2019-05-07T09:56:03.053Z,999.90
2019-05-07T09:57:02.069Z,999.90
2019-05-07T09:58:02.219Z,999.90
2019-05-07T09:59:02.276Z,999.90
2019-05-07T10:00:02.368Z,999.90
2019-05-07T10:01:02.192Z,999.90
2019-05-07T10:02:02.031Z,999.90
2019-05-07T10:03:02.001Z,999.90
2019-05-07T10:04:02.623Z,990.70
2019-05-07T10:05:02.515Z,999.90
2019-05-07T10:06:02.371Z,999.90
2019-05-07T10:07:02.538Z,974.10
2019-05-07T10:08:02.050Z,999.90
2019-05-07T10:09:02.841Z,999.90
2019-05-07T10:10:03.228Z,999.90
2019-05-07T10:11:02.706Z,999.90
2019-05-07T10:12:02.782Z,999.90
2019-05-07T10:13:01.987Z,999.90
2019-05-07T10:14:02.031Z,999.90
2019-05-07T10:15:03.094Z,992.10
2019-05-07T10:16:03.850Z,999.90
2019-05-07T10:17:02.768Z,957.90
2019-05-07T10:18:01.939Z,953.90
2019-05-07T10:19:01.825Z,918.30
2019-05-07T10:20:04.434Z,914.70
2019-05-07T10:21:02.824Z,911.00
2019-05-07T10:22:02.346Z,933.70
2019-05-07T10:23:02.465Z,924.90
2019-05-07T10:24:02.380Z,958.50
2019-05-07T10:25:02.875Z,969.00
2019-05-07T10:26:01.884Z,985.00
2019-05-07T10:27:02.283Z,948.50
2019-05-07T10:28:02.024Z,931.00
2019-05-07T10:29:02.209Z,904.70
2019-05-07T10:30:02.370Z,933.80
2019-05-07T10:31:01.684Z,930.50
2019-05-07T10:32:02.208Z,899.60
2019-05-07T10:33:01.837Z,929.10
2019-05-07T10:34:03.042Z,905.80
2019-05-07T10:35:02.243Z,908.00
2019-05-07T10:36:02.143Z,931.70
2019-05-07T10:37:02.689Z,912.80
2019-05-07T10:38:02.042Z,926.80
2019-05-07T10:39:02.520Z,923.60
2019-05-07T10:40:03.131Z,938.00
2019-05-07T10:41:02.834Z,915.00
2019-05-07T10:42:01.898Z,924.30
2019-05-07T10:43:01.550Z,909.00
2019-05-07T10:44:02.545Z,918.10
2019-05-07T10:45:03.091Z,931.70
2019-05-07T10:46:02.358Z,901.10
2019-05-07T10:47:01.996Z,927.20
2019-05-07T10:48:02.524Z,921.20
2019-05-07T10:49:01.957Z,924.30
2019-05-07T10:50:02.878Z,924.50
2019-05-07T10:51:02.147Z,922.50
2019-05-07T10:52:02.142Z,903.40
2019-05-07T10:53:02.065Z,918.60
2019-05-07T10:54:02.252Z,925.00
2019-05-07T10:55:02.925Z,920.00
2019-05-07T10:56:02.670Z,921.50
2019-05-07T10:57:01.424Z,922.00
2019-05-07T10:58:03.027Z,931.60
2019-05-07T10:59:02.903Z,930.60
2019-05-07T11:00:03.169Z,937.80
2019-05-07T11:01:02.900Z,950.60
2019-05-07T11:02:02.447Z,958.70
2019-05-07T11:03:02.393Z,956.30
2019-05-07T11:04:02.231Z,966.00
2019-05-07T11:05:02.317Z,978.80
2019-05-07T11:06:01.308Z,972.60
2019-05-07T11:07:01.290Z,955.90
2019-05-07T11:08:02.084Z,972.40
2019-05-07T11:09:01.282Z,987.70
2019-05-07T11:10:01.951Z,984.60
2019-05-07T11:11:02.943Z,972.50
2019-05-07T11:12:02.584Z,982.80
2019-05-07T11:13:02.351Z,982.10
2019-05-07T11:14:01.958Z,983.40
2019-05-07T11:15:02.194Z,988.00
2019-05-07T11:16:02.423Z,980.30
2019-05-07T11:17:02.603Z,983.40
2019-05-07T11:18:02.702Z,981.40
2019-05-07T11:19:02.033Z,952.40
2019-05-07T11:20:01.162Z,953.90
2019-05-07T11:21:03.098Z,937.70
2019-05-07T11:22:01.141Z,957.30
2019-05-07T11:23:02.661Z,957.70
2019-05-07T11:24:03.249Z,953.00
2019-05-07T11:25:03.010Z,937.10
2019-05-07T11:26:02.602Z,932.70
2019-05-07T11:27:02.419Z,927.30
2019-05-07T11:28:02.865Z,918.50
2019-05-07T11:29:02.389Z,928.40
2019-05-07T11:30:02.694Z,902.20
2019-05-07T11:31:02.115Z,933.00
2019-05-07T11:32:01.032Z,923.60
2019-05-07T11:33:02.723Z,914.40
2019-05-07T11:34:02.775Z,917.50
2019-05-07T11:35:02.962Z,913.50
2019-05-07T11:36:02.139Z,925.40
2019-05-07T11:37:02.431Z,915.00
2019-05-07T11:38:10.980Z,906.80
2019-05-07T11:39:01.985Z,905.00
2019-05-07T11:40:03.029Z,890.70
2019-05-07T11:41:02.283Z,891.40
2019-05-07T11:42:02.382Z,903.50
2019-05-07T11:43:02.460Z,885.00
2019-05-07T11:44:01.791Z,884.50
2019-05-07T11:45:02.170Z,907.40
2019-05-07T11:46:02.003Z,904.60
2019-05-07T11:47:02.985Z,909.10
2019-05-07T11:48:01.890Z,895.30
2019-05-07T11:49:00.847Z,896.90
2019-05-07T11:50:03.060Z,880.50
2019-05-07T11:51:04.120Z,877.50
2019-05-07T11:52:00.846Z,895.80
2019-05-07T11:53:00.803Z,900.10
2019-05-07T11:54:02.107Z,891.00
2019-05-07T11:55:03.016Z,898.10
2019-05-07T11:56:02.522Z,898.80
2019-05-07T11:57:02.671Z,904.40
2019-05-07T11:58:02.433Z,901.40
2019-05-07T11:59:02.661Z,921.40
2019-05-07T12:00:02.797Z,907.30
2019-05-07T12:01:03.671Z,911.40
2019-05-07T12:02:00.713Z,905.50
2019-05-07T12:03:02.286Z,921.60
2019-05-07T12:04:01.995Z,918.20
2019-05-07T12:05:02.019Z,901.10
2019-05-07T12:06:02.100Z,920.00
2019-05-07T12:07:02.590Z,913.30
2019-05-07T12:08:02.346Z,913.10
2019-05-07T12:09:02.874Z,910.80
2019-05-07T12:10:04.669Z,912.50
2019-05-07T12:11:02.337Z,905.10
2019-05-07T12:12:02.388Z,910.00
2019-05-07T12:13:02.395Z,910.30
2019-05-07T12:14:02.077Z,906.10
2019-05-07T12:15:02.451Z,916.20
2019-05-07T12:16:02.723Z,923.00
2019-05-07T12:17:02.581Z,895.20
2019-05-07T12:18:02.764Z,917.20
2019-05-07T12:19:02.225Z,913.30
2019-05-07T12:20:02.342Z,918.60
2019-05-07T12:21:03.754Z,916.90
2019-05-07T12:22:02.739Z,921.10
2019-05-07T12:23:02.612Z,916.10
2019-05-07T12:24:02.116Z,904.80
2019-05-07T12:25:02.507Z,916.10
2019-05-07T12:26:02.287Z,910.00
2019-05-07T12:27:02.498Z,920.90
2019-05-07T12:28:02.439Z,906.80